aviador You're here:

KSDC Decoded Metar

in
Report Time2018-05-27 01:35:00
UTC Time2018-05-27 01:22:31
Flight Rules vfr VFR
WindCalm
Visibility9999 m
Phenomena:N/A
Clouds:Broken 075 Hf
Broken 090 Hf
Expected CloudBase > 2,000 ft AGL from Temp-Dew spread
Ceiling7,500 ft
Temp18°C
Dew Point13°C (73% RH)
QNH1012 hPa
Raw Report
KSDC 270135Z AUTO 00000KT 10SM BKN075 BKN090 18/13 A2988 RMK
AO2=

Extra information for KSDC:More info

Social comments